Terminal Aerodrome Forecast
Issued by NWS

Home | Current Version | Previous Version | Text Only | Print | Product List | Glossary On
Versions: 1 2 3 4 5 6 7 8 9 10 11 12 13 14 15 16 17 18 19 20
000
FTUS46 KSGX 201138
TAFONT
TAF
KONT 201138Z 2012/2118 26007KT 6SM BR OVC018
     FM201800 25007KT P6SM SCT020
     FM202100 25011KT P6SM SKC
     FM210400 25009KT P6SM SCT020
     FM210800 VRB06KT P6SM OVC020
      AMD NOT SKED=

USA.gov is the U.S. government's official web portal to all federal, state and local government web resources and services.